Time;durP1;ratioP1;P1;durP2;ratioP2;P2;SDS_P1;SDS_P2;PMS_P1;PMS_P2;Temp;Humidity;BMP_temperature;BMP_pressure;BME280_temperature;BME280_humidity;BME280_pressure;Samples;Min_cycle;Max_cycle;Signal;HPM_P1;HPM_P2
2022/04/13 00:02:23;;;;;;;2.72;1.25;;;26.50;93.40;;;;;;4959922;28;20105;-72
2022/04/13 00:04:50;;;;;;;0.93;0.30;;;26.20;93.60;;;;;;4965292;28;20042;-76
2022/04/13 00:07:18;;;;;;;1.10;0.40;;;26.30;94.30;;;;;;4963142;28;20683;-72
2022/04/13 00:09:45;;;;;;;4.13;0.30;;;26.00;93.80;;;;;;4965742;28;20481;-75
2022/04/13 00:12:12;;;;;;;2.25;0.40;;;26.50;94.20;;;;;;4968767;28;20106;-72
2022/04/13 00:14:40;;;;;;;3.33;1.35;;;26.50;94.20;;;;;;4970630;28;20050;-72
2022/04/13 00:17:07;;;;;;;2.70;0.35;;;26.10;93.90;;;;;;4962019;28;20057;-73
2022/04/13 00:19:35;;;;;;;1.15;0.30;;;25.90;94.10;;;;;;4972395;28;20040;-75
2022/04/13 00:22:02;;;;;;;1.88;0.75;;;25.90;94.40;;;;;;4969999;28;20027;-76
2022/04/13 00:24:29;;;;;;;2.78;0.30;;;26.50;93.90;;;;;;4968134;28;20840;-75
2022/04/13 00:26:57;;;;;;;1.60;0.60;;;27.40;93.60;;;;;;4963017;28;20066;-74
2022/04/13 00:29:25;;;;;;;3.22;0.40;;;27.80;92.70;;;;;;4960372;28;20497;-74
2022/04/13 00:31:53;;;;;;;3.47;0.45;;;28.40;92.50;;;;;;4964272;28;20034;-75
2022/04/13 00:34:21;;;;;;;3.90;0.50;;;29.20;91.80;;;;;;4963912;28;20771;-74
2022/04/13 00:36:48;;;;;;;1.95;0.35;;;29.60;91.80;;;;;;4966207;28;20046;-75
2022/04/13 00:39:16;;;;;;;0.73;0.38;;;29.30;91.20;;;;;;4970796;28;20118;-75
2022/04/13 00:41:43;;;;;;;0.57;0.20;;;29.00;92.20;;;;;;4968659;28;20027;-75
2022/04/13 00:44:11;;;;;;;0.77;0.50;;;29.10;91.70;;;;;;4966921;28;20036;-74
2022/04/13 00:46:39;;;;;;;1.00;0.30;;;28.30;91.40;;;;;;4982569;28;20023;-74
2022/04/13 00:49:07;;;;;;;3.15;0.43;;;27.40;92.50;;;;;;4981423;28;20277;-74
2022/04/13 00:51:34;;;;;;;2.30;0.40;;;26.40;93.10;;;;;;4971044;28;20035;-73
2022/04/13 00:54:03;;;;;;;2.15;0.73;;;25.50;93.80;;;;;;4970110;28;20039;-74
2022/04/13 00:56:31;;;;;;;1.95;0.60;;;24.60;94.70;;;;;;4961654;28;20094;-73
2022/04/13 00:59:09;;;;;;;2.63;0.43;;;24.00;96.10;;;;;;4968741;28;20042;-74
2022/04/13 01:01:43;;;;;;;1.50;0.30;;;23.70;96.50;;;;;;4967773;28;20027;-74
2022/04/13 01:04:12;;;;;;;1.98;0.52;;;23.50;97.70;;;;;;4967517;28;20030;-78
2022/04/13 01:06:41;;;;;;;0.85;0.47;;;23.30;98.50;;;;;;4956045;28;20099;-75
2022/04/13 01:09:11;;;;;;;6.72;0.70;;;23.30;98.90;;;;;;4965132;28;20485;-77
2022/04/13 01:11:38;;;;;;;3.25;0.70;;;23.30;98.30;;;;;;4970707;28;20102;-75
2022/04/13 01:14:06;;;;;;;0.88;0.40;;;23.30;98.30;;;;;;4963633;28;20593;-75
2022/04/13 01:16:37;;;;;;;3.35;0.50;;;23.40;97.80;;;;;;4960765;28;20031;-73
2022/04/13 01:19:07;;;;;;;2.60;0.35;;;23.30;97.40;;;;;;4966964;28;20127;-73
2022/04/13 01:21:52;;;;;;;0.43;0.20;;;23.80;96.90;;;;;;4962016;28;20094;-73
2022/04/13 01:24:21;;;;;;;0.80;0.30;;;24.00;96.50;;;;;;4966008;28;20348;-73
2022/04/13 01:26:49;;;;;;;2.40;0.30;;;24.00;96.10;;;;;;4965356;28;20645;-75
2022/04/13 01:29:18;;;;;;;0.65;0.32;;;24.10;96.10;;;;;;4957028;28;20062;-74
2022/04/13 01:31:46;;;;;;;0.40;0.22;;;25.40;95.40;;;;;;4962063;28;20023;-76
2022/04/13 01:34:13;;;;;;;1.33;0.52;;;25.70;94.40;;;;;;4963822;28;20043;-76
2022/04/13 01:36:41;;;;;;;1.77;0.30;;;25.20;94.60;;;;;;4965659;28;20046;-73
2022/04/13 01:39:08;;;;;;;3.72;0.35;;;24.20;95.00;;;;;;4966727;28;20037;-73
2022/04/13 01:41:36;;;;;;;1.65;0.30;;;23.60;95.90;;;;;;4966699;28;20034;-76
2022/04/13 01:44:04;;;;;;;2.47;0.40;;;23.00;96.60;;;;;;4962823;28;20045;-77
2022/04/13 01:46:31;;;;;;;0.90;0.40;;;22.80;97.10;;;;;;4960149;28;20135;-74
2022/04/13 01:48:58;;;;;;;0.70;0.30;;;22.90;97.60;;;;;;4957943;28;20047;-73
2022/04/13 01:51:26;;;;;;;1.25;0.70;;;24.20;96.80;;;;;;4962244;28;20027;-73
2022/04/13 01:53:53;;;;;;;0.75;0.40;;;25.30;95.20;;;;;;4960758;28;20034;-75
2022/04/13 01:56:20;;;;;;;0.30;0.20;;;25.50;94.80;;;;;;4959415;28;20114;-78
2022/04/13 01:58:48;;;;;;;0.70;0.25;;;26.40;93.80;;;;;;4952998;28;20090;-73
2022/04/13 02:01:17;;;;;;;1.27;0.30;;;27.10;93.10;;;;;;4961287;28;20035;-72
2022/04/13 02:03:45;;;;;;;2.42;0.43;;;27.50;92.90;;;;;;4961758;28;20378;-73
2022/04/13 02:06:14;;;;;;;0.68;0.52;;;27.30;92.60;;;;;;4963738;28;20444;-75
2022/04/13 02:08:42;;;;;;;1.25;0.40;;;26.60;92.90;;;;;;4961845;28;20024;-77
2022/04/13 02:11:09;;;;;;;2.40;0.40;;;25.70;93.90;;;;;;4960595;28;20039;-77
2022/04/13 02:13:39;;;;;;;0.73;0.35;;;24.90;94.00;;;;;;4968697;28;20492;-73
2022/04/13 02:16:08;;;;;;;0.28;0.20;;;24.20;94.50;;;;;;4959448;28;20043;-74
2022/04/13 02:18:35;;;;;;;1.30;0.40;;;23.80;94.90;;;;;;4961272;28;20155;-77
2022/04/13 02:21:03;;;;;;;0.75;0.20;;;23.60;95.70;;;;;;4963555;28;20041;-74
2022/04/13 02:23:30;;;;;;;2.25;0.50;;;23.40;95.90;;;;;;4960708;28;20031;-75
2022/04/13 02:25:59;;;;;;;0.80;0.47;;;23.20;96.40;;;;;;4963958;28;20118;-76
2022/04/13 02:28:27;;;;;;;1.42;0.38;;;22.90;96.80;;;;;;4962608;28;20429;-76
2022/04/13 02:30:54;;;;;;;0.25;0.13;;;22.70;96.90;;;;;;4962701;28;20500;-74
2022/04/13 02:33:21;;;;;;;0.85;0.20;;;23.00;97.20;;;;;;4959924;28;20055;-72
2022/04/13 02:35:49;;;;;;;0.45;0.20;;;23.70;96.90;;;;;;4969213;28;20094;-78
2022/04/13 02:38:19;;;;;;;0.50;0.30;;;23.70;97.00;;;;;;4962299;28;20106;-76
2022/04/13 02:40:46;;;;;;;0.40;0.20;;;24.50;96.60;;;;;;4972497;28;20043;-73
2022/04/13 02:43:14;;;;;;;1.55;0.65;;;24.90;95.90;;;;;;4975891;28;20023;-73
2022/04/13 02:45:41;;;;;;;0.10;0.10;;;24.30;95.90;;;;;;4967096;28;20030;-74
2022/04/13 02:48:09;;;;;;;1.52;0.20;;;23.80;96.70;;;;;;4965217;28;20035;-74
2022/04/13 02:50:37;;;;;;;0.20;0.20;;;23.50;96.80;;;;;;4964079;28;20868;-74
2022/04/13 02:53:04;;;;;;;0.28;0.20;;;24.10;96.50;;;;;;4964441;28;20106;-75
2022/04/13 02:55:32;;;;;;;0.10;0.10;;;24.50;96.40;;;;;;4969561;28;20113;-77
2022/04/13 02:57:59;;;;;;;0.28;0.10;;;25.00;95.70;;;;;;4968682;28;20279;-73
2022/04/13 03:00:27;;;;;;;0.20;0.10;;;25.30;94.60;;;;;;4967857;28;20031;-73
2022/04/13 03:02:54;;;;;;;0.20;0.10;;;25.40;94.90;;;;;;4959401;28;20035;-72
2022/04/13 03:05:21;;;;;;;0.65;0.22;;;25.40;94.80;;;;;;4961952;28;20118;-72
2022/04/13 03:07:49;;;;;;;0.65;0.05;;;25.60;94.50;;;;;;4971952;28;20041;-73
2022/04/13 03:10:18;;;;;;;0.73;0.22;;;25.60;94.40;;;;;;4960303;28;20401;-73
2022/04/13 03:12:45;;;;;;;0.20;0.20;;;25.60;94.40;;;;;;4962509;28;20105;-73
2022/04/13 03:15:14;;;;;;;0.65;0.17;;;25.90;95.40;;;;;;4963572;28;20054;-74
2022/04/13 03:17:41;;;;;;;0.20;0.10;;;26.20;95.40;;;;;;4965843;28;20034;-73
2022/04/13 03:20:10;;;;;;;0.35;0.10;;;26.30;94.60;;;;;;4970597;28;20034;-72
2022/04/13 03:22:37;;;;;;;1.60;0.52;;;26.30;94.10;;;;;;4962202;28;20058;-73
2022/04/13 03:25:05;;;;;;;1.75;0.30;;;26.40;94.40;;;;;;4967167;28;20034;-75
2022/04/13 03:27:33;;;;;;;0.20;0.10;;;26.30;94.00;;;;;;4966052;28;20054;-75
2022/04/13 03:30:01;;;;;;;0.43;0.10;;;26.20;94.70;;;;;;4963833;28;20054;-73
2022/04/13 03:32:35;;;;;;;0.28;0.20;;;26.30;94.40;;;;;;4961069;28;20086;-74
2022/04/13 03:35:02;;;;;;;0.82;0.40;;;25.80;94.50;;;;;;4960714;28;20031;-74
2022/04/13 03:37:29;;;;;;;1.17;0.50;;;25.40;95.30;;;;;;4962091;28;20150;-74
2022/04/13 03:39:57;;;;;;;0.52;0.40;;;25.50;95.80;;;;;;4969956;28;20580;-74
2022/04/13 03:42:24;;;;;;;0.50;0.40;;;25.50;95.60;;;;;;4964755;28;20026;-73
2022/04/13 03:44:51;;;;;;;0.98;0.30;;;25.50;95.30;;;;;;4970142;28;20421;-74
2022/04/13 03:47:19;;;;;;;1.48;0.35;;;25.70;96.20;;;;;;4970826;28;20062;-74
2022/04/13 03:49:46;;;;;;;1.00;0.30;;;25.50;96.40;;;;;;4972459;28;20042;-74
2022/04/13 03:52:14;;;;;;;1.63;0.20;;;25.40;96.40;;;;;;4966001;28;20026;-75
2022/04/13 03:54:41;;;;;;;0.80;0.20;;;25.40;96.20;;;;;;4963527;28;20524;-73
2022/04/13 03:57:09;;;;;;;0.60;0.20;;;25.20;96.00;;;;;;4962866;28;20165;-79
2022/04/13 03:59:36;;;;;;;0.80;0.30;;;24.70;96.40;;;;;;4969050;28;20645;-76
2022/04/13 04:02:03;;;;;;;0.30;0.20;;;24.10;96.60;;;;;;4963113;28;20050;-73
2022/04/13 04:04:31;;;;;;;0.82;0.15;;;23.90;97.20;;;;;;4962649;28;20354;-77
2022/04/13 04:06:58;;;;;;;2.72;0.20;;;23.70;97.50;;;;;;4963033;28;20039;-77
2022/04/13 04:09:26;;;;;;;1.45;0.28;;;23.70;97.40;;;;;;4962269;28;20504;-77
2022/04/13 04:11:53;;;;;;;0.10;0.10;;;23.30;97.50;;;;;;4962504;28;20026;-72
2022/04/13 04:14:20;;;;;;;1.48;0.20;;;22.90;98.20;;;;;;4961866;28;20039;-72
2022/04/13 04:16:48;;;;;;;1.25;0.20;;;22.40;98.90;;;;;;4962914;28;20102;-71
2022/04/13 04:19:15;;;;;;;0.05;0.03;;;22.10;99.60;;;;;;4960256;28;20031;-73
2022/04/13 04:21:46;;;;;;;0.50;0.15;;;22.00;99.90;;;;;;4961493;28;20130;-74
2022/04/13 04:24:13;;;;;;;0.38;0.13;;;22.00;99.90;;;;;;4962755;28;20505;-73
2022/04/13 04:26:42;;;;;;;0.20;0.10;;;21.80;99.90;;;;;;4959228;28;20023;-73
2022/04/13 04:29:10;;;;;;;0.55;0.20;;;21.60;99.90;;;;;;4973439;28;20053;-74
2022/04/13 04:31:59;;;;;;;0.65;0.10;;;21.40;99.90;;;;;;4978250;28;20027;-73
2022/04/13 04:34:27;;;;;;;1.48;0.10;;;21.40;99.90;;;;;;4974839;28;20027;-74
2022/04/13 04:36:54;;;;;;;0.10;0.10;;;21.50;99.90;;;;;;4968033;28;20062;-72
2022/04/13 04:39:21;;;;;;;1.27;0.20;;;21.40;99.90;;;;;;4961765;28;20035;-73
2022/04/13 04:41:48;;;;;;;1.55;0.10;;;21.40;99.90;;;;;;4964376;28;20377;-73
2022/04/13 04:44:16;;;;;;;0.40;0.20;;;21.50;99.90;;;;;;4965705;28;20486;-76
2022/04/13 04:46:43;;;;;;;0.77;0.25;;;21.70;99.90;;;;;;4961313;28;20067;-75
2022/04/13 04:49:11;;;;;;;1.45;0.10;;;21.60;99.90;;;;;;4964275;28;20039;-78
2022/04/13 04:51:38;;;;;;;1.05;0.40;;;21.60;99.90;;;;;;4963311;28;20027;-76
2022/04/13 04:54:05;;;;;;;0.20;0.10;;;21.70;99.90;;;;;;4961560;28;20043;-74
2022/04/13 04:56:35;;;;;;;0.30;0.10;;;21.70;99.90;;;;;;4962920;28;20418;-73
2022/04/13 04:59:02;;;;;;;0.47;0.20;;;22.00;99.90;;;;;;4958489;28;20062;-72
2022/04/13 05:01:32;;;;;;;0.98;0.20;;;22.10;99.90;;;;;;4960532;28;20027;-75
2022/04/13 05:04:00;;;;;;;2.30;0.25;;;22.10;99.90;;;;;;4963210;28;20034;-74
2022/04/13 05:06:29;;;;;;;0.30;0.10;;;22.10;99.90;;;;;;4963843;28;20027;-72
2022/04/13 05:08:58;;;;;;;0.28;0.13;;;21.90;99.90;;;;;;4962888;28;20115;-73
2022/04/13 05:11:25;;;;;;;0.65;0.15;;;22.00;99.90;;;;;;4960964;28;20114;-73
2022/04/13 05:13:53;;;;;;;0.22;0.20;;;22.30;99.90;;;;;;4961949;28;20071;-77
2022/04/13 05:16:20;;;;;;;4.90;0.75;;;22.60;99.90;;;;;;4966551;28;20066;-72
2022/04/13 05:18:48;;;;;;;0.40;0.10;;;22.90;99.90;;;;;;4966241;28;20023;-72
2022/04/13 05:21:16;;;;;;;0.30;0.20;;;23.30;99.90;;;;;;4969679;28;20033;-73
2022/04/13 05:23:44;;;;;;;0.20;0.10;;;23.50;99.30;;;;;;4966867;28;20027;-72
2022/04/13 05:26:12;;;;;;;0.17;0.13;;;23.80;99.20;;;;;;4957430;28;20019;-73
2022/04/13 05:28:39;;;;;;;0.00;0.00;;;23.90;98.20;;;;;;4970926;28;20394;-75
2022/04/13 05:31:07;;;;;;;0.30;0.10;;;23.80;98.20;;;;;;4964100;28;20039;-73
2022/04/13 05:33:34;;;;;;;0.20;0.15;;;23.50;98.30;;;;;;4958887;28;20046;-74
2022/04/13 05:36:06;;;;;;;0.35;0.10;;;23.10;98.70;;;;;;4956312;28;20042;-73
2022/04/13 05:38:34;;;;;;;0.73;0.20;;;22.70;99.10;;;;;;4960175;28;20038;-72
2022/04/13 05:41:01;;;;;;;1.00;0.20;;;22.40;99.80;;;;;;4961462;28;20038;-72
2022/04/13 05:43:34;;;;;;;0.38;0.10;;;22.20;99.90;;;;;;4961069;28;20049;-75
2022/04/13 05:46:02;;;;;;;0.10;0.10;;;22.00;99.90;;;;;;4959620;28;20022;-73
2022/04/13 05:48:30;;;;;;;0.30;0.20;;;21.70;99.90;;;;;;4959233;28;20038;-74
2022/04/13 05:50:59;;;;;;;0.55;0.17;;;21.50;99.90;;;;;;4962016;28;20023;-73
2022/04/13 05:53:27;;;;;;;1.02;0.10;;;21.40;99.90;;;;;;4960163;28;20080;-74
2022/04/13 05:55:57;;;;;;;1.17;0.10;;;21.20;99.90;;;;;;4956902;28;20194;-72
2022/04/13 05:58:28;;;;;;;0.77;0.20;;;21.00;99.90;;;;;;4960382;28;20401;-73
2022/04/13 06:01:04;;;;;;;2.70;0.28;;;20.80;99.90;;;;;;4959573;28;20035;-73
2022/04/13 06:03:33;;;;;;;0.30;0.13;;;20.70;99.90;;;;;;4961037;28;20061;-73
2022/04/13 06:06:00;;;;;;;1.65;0.20;;;20.50;99.90;;;;;;4957294;28;20027;-74
2022/04/13 06:08:27;;;;;;;0.22;0.10;;;20.30;99.90;;;;;;4961890;28;20035;-74
2022/04/13 06:10:55;;;;;;;0.32;0.20;;;19.90;99.90;;;;;;4965201;28;20136;-73
2022/04/13 06:13:23;;;;;;;0.60;0.30;;;19.70;99.90;;;;;;4961376;28;20039;-74
2022/04/13 06:15:50;;;;;;;0.65;0.17;;;19.60;99.90;;;;;;4966010;28;20093;-74
2022/04/13 06:18:17;;;;;;;0.43;0.30;;;19.40;99.90;;;;;;4964642;28;20022;-73
2022/04/13 06:20:45;;;;;;;1.27;0.50;;;19.20;99.90;;;;;;4964912;28;20653;-74
2022/04/13 06:23:12;;;;;;;0.70;0.35;;;19.00;99.90;;;;;;4965550;28;20157;-72
2022/04/13 06:25:40;;;;;;;1.70;0.88;;;19.00;99.90;;;;;;4967280;28;20069;-74
2022/04/13 06:28:07;;;;;;;0.20;0.13;;;19.00;99.90;;;;;;4964300;28;20125;-75
2022/04/13 06:30:37;;;;;;;13.30;9.35;;;19.00;99.90;;;;;;4964516;28;20038;-74
2022/04/13 06:33:05;;;;;;;8.43;2.88;;;19.00;99.90;;;;;;4965262;28;20062;-75
2022/04/13 06:35:32;;;;;;;7.40;1.83;;;19.00;99.90;;;;;;4964169;28;20349;-75
2022/04/13 06:38:00;;;;;;;12.88;4.07;;;19.00;99.90;;;;;;4964545;28;20130;-75
2022/04/13 06:40:27;;;;;;;6.28;2.90;;;19.10;99.90;;;;;;4965038;28;20035;-75
2022/04/13 06:42:57;;;;;;;2.85;0.70;;;19.00;99.90;;;;;;4964768;28;20024;-75
2022/04/13 06:45:25;;;;;;;2.15;0.65;;;19.00;99.90;;;;;;4964728;28;20038;-74
2022/04/13 06:47:52;;;;;;;7.75;1.55;;;19.00;99.90;;;;;;4962778;28;20048;-73
2022/04/13 06:50:19;;;;;;;15.88;5.38;;;19.00;99.90;;;;;;4961497;28;20053;-72
2022/04/13 06:52:47;;;;;;;6.05;2.20;;;19.00;99.90;;;;;;4964828;28;20675;-72
2022/04/13 06:55:14;;;;;;;2.63;0.68;;;19.00;99.90;;;;;;4964084;28;20022;-71
2022/04/13 06:57:42;;;;;;;3.30;0.45;;;18.80;99.90;;;;;;4961143;28;20493;-70
2022/04/13 07:00:11;;;;;;;1.67;0.40;;;18.80;99.90;;;;;;4962469;28;20504;-72
2022/04/13 07:02:40;;;;;;;0.28;0.10;;;18.70;99.90;;;;;;4960784;28;20393;-70
2022/04/13 07:05:08;;;;;;;0.95;0.30;;;18.60;99.90;;;;;;4950813;28;20113;-70
2022/04/13 07:07:41;;;;;;;0.47;0.20;;;18.60;99.90;;;;;;4963186;28;20034;-69
2022/04/13 07:10:09;;;;;;;0.30;0.10;;;18.50;99.90;;;;;;4960567;28;20043;-71
2022/04/13 07:12:37;;;;;;;0.45;0.20;;;18.50;99.90;;;;;;4964479;28;20051;-71
2022/04/13 07:15:05;;;;;;;0.88;0.28;;;18.40;99.90;;;;;;4962113;28;20102;-71
2022/04/13 07:17:33;;;;;;;0.20;0.10;;;18.30;99.90;;;;;;4963587;28;20030;-70
2022/04/13 07:20:00;;;;;;;1.58;0.30;;;18.30;99.90;;;;;;4961570;28;20163;-71
2022/04/13 07:22:27;;;;;;;1.75;0.32;;;18.30;99.90;;;;;;4962891;28;20105;-70
2022/04/13 07:24:55;;;;;;;0.88;0.20;;;18.30;99.90;;;;;;4962133;28;20031;-72
2022/04/13 07:27:22;;;;;;;0.50;0.30;;;18.20;99.90;;;;;;4956576;28;20035;-71
2022/04/13 07:29:49;;;;;;;0.57;0.43;;;18.20;99.90;;;;;;4973062;28;20046;-71
2022/04/13 07:32:17;;;;;;;0.98;0.30;;;18.20;99.90;;;;;;4973107;28;20033;-71
2022/04/13 07:34:45;;;;;;;0.40;0.30;;;18.10;99.90;;;;;;4972995;28;20030;-71
2022/04/13 07:37:12;;;;;;;0.60;0.32;;;18.00;99.90;;;;;;4971455;28;20046;-70
2022/04/13 07:39:40;;;;;;;2.38;0.38;;;18.10;99.90;;;;;;4966186;28;20038;-71
2022/04/13 07:42:07;;;;;;;1.20;0.50;;;18.10;99.90;;;;;;4963840;28;20107;-71
2022/04/13 07:44:35;;;;;;;0.80;0.40;;;18.10;99.90;;;;;;4964169;28;20515;-73
2022/04/13 07:47:02;;;;;;;0.55;0.20;;;18.10;99.90;;;;;;4969286;28;20034;-71
2022/04/13 07:49:30;;;;;;;0.40;0.20;;;18.00;99.90;;;;;;4966666;28;20080;-75
2022/04/13 07:52:00;;;;;;;0.30;0.30;;;18.00;99.90;;;;;;4973321;28;20035;-74
2022/04/13 07:54:28;;;;;;;1.58;0.45;;;18.00;99.90;;;;;;4971031;28;20027;-73
2022/04/13 07:56:55;;;;;;;0.30;0.20;;;18.00;99.90;;;;;;4973199;28;20085;-73
2022/04/13 07:59:23;;;;;;;1.08;0.55;;;17.90;99.90;;;;;;4964499;28;20035;-74
2022/04/13 08:01:50;;;;;;;0.77;0.68;;;17.90;99.90;;;;;;4971674;28;20413;-73
2022/04/13 08:04:17;;;;;;;2.05;0.68;;;17.80;99.90;;;;;;4968055;28;20039;-74
2022/04/13 08:06:45;;;;;;;2.45;0.50;;;17.80;99.90;;;;;;4972063;28;20023;-73
2022/04/13 08:09:13;;;;;;;0.95;0.45;;;17.70;99.90;;;;;;4968182;28;20035;-73
2022/04/13 08:11:40;;;;;;;1.10;0.40;;;17.70;99.90;;;;;;4964479;28;20054;-74
2022/04/13 08:14:08;;;;;;;0.70;0.30;;;17.70;99.90;;;;;;4964719;28;20035;-74
2022/04/13 08:16:35;;;;;;;0.43;0.30;;;17.70;99.90;;;;;;4972228;28;20031;-76
2022/04/13 08:19:05;;;;;;;0.20;0.10;;;17.70;99.90;;;;;;4973470;28;20041;-74
2022/04/13 08:21:33;;;;;;;0.73;0.40;;;17.80;99.90;;;;;;4967960;28;20045;-74
2022/04/13 08:24:00;;;;;;;0.60;0.38;;;17.80;99.90;;;;;;4973846;28;20034;-74
2022/04/13 08:26:28;;;;;;;1.63;0.85;;;17.80;99.90;;;;;;4965366;28;20114;-73
2022/04/13 08:28:56;;;;;;;1.40;0.38;;;17.80;99.90;;;;;;4963878;28;20046;-74
2022/04/13 08:31:23;;;;;;;0.40;0.35;;;17.80;99.90;;;;;;4970692;28;20564;-75
2022/04/13 08:33:51;;;;;;;1.58;0.50;;;17.70;99.90;;;;;;4972504;28;20030;-74
2022/04/13 08:36:18;;;;;;;0.30;0.30;;;17.80;99.90;;;;;;4963157;28;20039;-74
2022/04/13 08:38:45;;;;;;;1.20;0.52;;;17.70;99.90;;;;;;4963351;28;20039;-75
2022/04/13 08:41:28;;;;;;;0.50;0.30;;;17.80;99.90;;;;;;4955596;28;20037;-73
2022/04/13 08:44:04;;;;;;;0.52;0.30;;;17.80;99.90;;;;;;4960624;28;20035;-75
2022/04/13 08:46:35;;;;;;;0.45;0.32;;;17.70;99.90;;;;;;4958099;28;20031;-74
2022/04/13 08:49:09;;;;;;;0.68;0.30;;;17.70;99.90;;;;;;4970742;28;20030;-73
2022/04/13 08:51:39;;;;;;;0.90;0.52;;;17.70;99.90;;;;;;4962364;28;20394;-74
2022/04/13 08:54:35;;;;;;;1.27;0.40;;;17.70;99.90;;;;;;4965000;28;20043;-73
2022/04/13 08:57:05;;;;;;;0.80;0.40;;;17.80;99.90;;;;;;4941725;28;20031;-72
2022/04/13 09:00:02;;;;;;;1.08;0.45;;;17.70;99.90;;;;;;4960636;28;21598;-74
2022/04/13 09:02:43;;;;;;;1.73;0.77;;;17.80;99.90;;;;;;4960846;28;20381;-74
2022/04/13 09:05:16;;;;;;;1.60;0.70;;;17.70;99.90;;;;;;4963346;28;20042;-73
2022/04/13 09:07:45;;;;;;;1.35;0.90;;;17.70;99.90;;;;;;4963191;28;20081;-75
2022/04/13 09:10:23;;;;;;;2.30;0.85;;;17.60;99.90;;;;;;4960688;28;20039;-75
2022/04/13 09:12:53;;;;;;;1.20;0.50;;;17.50;99.90;;;;;;4960181;28;20027;-74
2022/04/13 09:15:20;;;;;;;1.23;0.43;;;17.50;99.90;;;;;;4962326;28;20219;-74
2022/04/13 09:17:48;;;;;;;0.80;0.40;;;17.40;99.90;;;;;;4963008;28;20015;-76
2022/04/13 09:20:16;;;;;;;1.40;0.50;;;17.30;99.90;;;;;;4960415;28;20031;-75
2022/04/13 09:22:44;;;;;;;1.25;0.68;;;17.40;99.90;;;;;;4961818;28;21651;-76
2022/04/13 09:25:12;;;;;;;2.53;0.60;;;17.30;99.90;;;;;;4960063;28;20031;-73
2022/04/13 09:27:40;;;;;;;0.82;0.40;;;17.30;99.90;;;;;;4954647;28;20042;-75
2022/04/13 09:30:09;;;;;;;0.73;0.40;;;17.30;99.90;;;;;;4954013;28;20379;-75
2022/04/13 09:32:37;;;;;;;1.10;0.43;;;17.20;99.90;;;;;;4966568;28;20030;-77
2022/04/13 09:35:05;;;;;;;0.75;0.47;;;17.30;99.90;;;;;;4966646;28;20101;-75
2022/04/13 09:37:34;;;;;;;0.60;0.47;;;17.20;99.90;;;;;;4968532;28;20053;-74
2022/04/13 09:40:01;;;;;;;0.80;0.60;;;17.20;99.90;;;;;;4965678;28;20550;-75
2022/04/13 09:42:28;;;;;;;1.67;0.40;;;17.20;99.90;;;;;;4957420;28;20026;-76
2022/04/13 09:44:57;;;;;;;1.52;0.43;;;17.20;99.90;;;;;;4969043;28;20022;-75
2022/04/13 09:47:34;;;;;;;1.23;0.40;;;17.20;99.90;;;;;;4973816;28;20035;-76
2022/04/13 09:50:01;;;;;;;1.75;0.35;;;17.20;99.90;;;;;;4969753;28;20496;-75
2022/04/13 09:52:43;;;;;;;0.70;0.50;;;17.20;99.90;;;;;;4970021;28;20054;-74
2022/04/13 09:55:11;;;;;;;0.57;0.40;;;17.10;99.90;;;;;;4968832;28;20104;-74
2022/04/13 09:57:38;;;;;;;0.82;0.32;;;17.20;99.90;;;;;;4973152;28;20058;-74
2022/04/13 10:00:08;;;;;;;0.75;0.47;;;17.10;99.90;;;;;;4969136;28;20039;-73
2022/04/13 10:02:43;;;;;;;2.22;0.63;;;17.20;99.90;;;;;;4971567;28;20035;-74
2022/04/13 10:05:21;;;;;;;0.93;0.60;;;17.20;99.90;;;;;;4965722;28;20035;-74
2022/04/13 10:08:22;;;;;;;1.88;0.60;;;17.10;99.90;;;;;;4964086;28;20031;-73
2022/04/13 10:10:51;;;;;;;1.23;0.50;;;17.20;99.90;;;;;;4954580;28;20058;-74
2022/04/13 10:13:36;;;;;;;1.80;0.52;;;17.20;99.90;;;;;;4965907;28;20039;-78
2022/04/13 10:16:09;;;;;;;2.83;0.60;;;17.20;99.90;;;;;;4963948;28;20371;-74
2022/04/13 10:19:00;;;;;;;1.60;0.77;;;17.20;99.90;;;;;;4961976;28;20852;-76
2022/04/13 10:21:43;;;;;;;2.45;1.83;;;17.20;99.90;;;;;;4965558;28;20031;-76
2022/04/13 10:24:24;;;;;;;5.15;3.53;;;17.10;99.90;;;;;;4969058;28;20081;-76
2022/04/13 10:27:25;;;;;;;5.60;4.18;;;17.10;99.90;;;;;;4959861;28;22160;-74
2022/04/13 10:29:53;;;;;;;8.15;4.95;;;17.20;99.90;;;;;;4954795;28;20054;-75
2022/04/13 10:32:27;;;;;;;12.45;7.25;;;17.20;99.90;;;;;;4966065;28;20038;-75
2022/04/13 10:34:55;;;;;;;11.18;7.30;;;17.20;99.90;;;;;;4966823;28;20034;-77
2022/04/13 10:37:24;;;;;;;21.45;13.10;;;17.30;99.90;;;;;;4968502;28;22773;-74
2022/04/13 10:39:53;;;;;;;30.45;21.45;;;17.30;99.90;;;;;;4964855;28;20070;-73
2022/04/13 10:42:22;;;;;;;24.58;20.65;;;17.20;99.90;;;;;;4964929;28;20504;-77
2022/04/13 10:44:53;;;;;;;30.25;19.33;;;17.30;99.90;;;;;;4968054;28;20030;-74
2022/04/13 10:47:31;;;;;;;22.10;16.60;;;17.20;99.90;;;;;;4963453;28;20031;-73
2022/04/13 10:50:01;;;;;;;19.35;13.45;;;17.20;99.90;;;;;;4961300;28;20035;-78
2022/04/13 10:52:31;;;;;;;15.05;11.48;;;17.20;99.90;;;;;;4968260;28;20377;-79
2022/04/13 10:55:12;;;;;;;15.60;10.57;;;17.20;99.90;;;;;;4961573;28;20385;-76
2022/04/13 10:57:53;;;;;;;8.02;4.95;;;17.30;99.90;;;;;;4962377;28;20110;-76
2022/04/13 11:00:21;;;;;;;8.88;3.78;;;17.20;99.90;;;;;;4959503;28;20019;-76
2022/04/13 11:02:58;;;;;;;6.10;2.45;;;17.20;99.90;;;;;;4964811;28;20037;-77
2022/04/13 11:05:27;;;;;;;5.63;2.45;;;17.20;99.90;;;;;;4960581;28;20062;-74
2022/04/13 11:08:02;;;;;;;2.20;1.15;;;17.20;99.90;;;;;;4954739;28;20034;-75
2022/04/13 11:10:32;;;;;;;4.38;2.63;;;17.20;99.90;;;;;;4965480;28;20053;-74
2022/04/13 11:13:03;;;;;;;5.43;3.88;;;17.20;99.90;;;;;;4963967;28;20034;-75
2022/04/13 11:16:02;;;;;;;6.65;4.30;;;17.20;99.90;;;;;;4965206;28;20109;-74
2022/04/13 11:18:30;;;;;;;9.50;6.10;;;17.20;99.90;;;;;;4965145;28;20047;-75
2022/04/13 11:21:00;;;;;;;8.10;4.70;;;17.20;99.90;;;;;;4949321;28;20976;-74
2022/04/13 11:23:52;;;;;;;4.70;2.45;;;17.20;99.90;;;;;;4943434;28;20125;-73
2022/04/13 11:26:28;;;;;;;1.30;0.77;;;17.10;99.90;;;;;;4944586;28;20075;-76
2022/04/13 11:29:10;;;;;;;;;;;17.00;99.90;;;;;;4944800;28;20057;-74
2022/04/13 11:32:01;;;;;;;2.05;0.47;;;17.00;99.90;;;;;;4944291;28;19973;-76
2022/04/13 11:34:58;;;;;;;2.08;0.40;;;16.90;99.90;;;;;;4935520;28;20035;-73
2022/04/13 11:37:41;;;;;;;2.95;0.77;;;16.90;99.90;;;;;;4945091;28;20181;-75
2022/04/13 11:40:13;;;;;;;3.08;0.65;;;16.90;99.90;;;;;;4943554;28;20046;-74
2022/04/13 11:42:46;;;;;;;1.15;0.85;;;16.90;99.90;;;;;;4943427;28;20043;-76
2022/04/13 11:45:20;;;;;;;1.52;0.75;;;16.90;99.90;;;;;;4945471;28;20042;-74
2022/04/13 11:47:53;;;;;;;1.38;0.90;;;16.80;99.90;;;;;;4942799;28;20028;-74
2022/04/13 11:50:28;;;;;;;2.35;0.73;;;16.80;99.90;;;;;;4943719;28;20043;-74
2022/04/13 11:53:06;;;;;;;3.13;0.80;;;16.80;99.90;;;;;;4943348;28;20024;-73
2022/04/13 11:55:42;;;;;;;2.83;0.80;;;16.70;99.90;;;;;;4945750;28;20409;-74
2022/04/13 11:58:09;;;;;;;1.00;0.60;;;16.70;99.90;;;;;;4943010;28;20156;-73
2022/04/13 12:00:54;;;;;;;1.38;0.70;;;16.70;99.90;;;;;;4951109;28;20023;-74
2022/04/13 12:03:32;;;;;;;1.70;0.80;;;16.70;99.90;;;;;;4961589;28;20024;-73
2022/04/13 12:06:11;;;;;;;3.30;0.80;;;16.60;99.90;;;;;;4961289;28;20034;-73
2022/04/13 12:08:43;;;;;;;0.75;0.60;;;16.60;99.90;;;;;;4947605;28;20035;-73
2022/04/13 12:11:19;;;;;;;1.95;0.73;;;16.50;99.90;;;;;;4951065;28;21224;-77
2022/04/13 12:13:57;;;;;;;1.65;0.70;;;16.50;99.90;;;;;;4951453;28;20040;-76
2022/04/13 12:16:33;;;;;;;1.02;0.80;;;16.40;99.90;;;;;;4950665;28;20027;-75
2022/04/13 12:19:11;;;;;;;1.25;0.75;;;16.40;99.90;;;;;;4945606;28;20035;-75
2022/04/13 12:21:40;;;;;;;2.63;0.63;;;16.30;99.90;;;;;;4945003;28;20039;-76
2022/04/13 12:24:12;;;;;;;1.30;0.65;;;16.30;99.90;;;;;;4946110;29;20062;-75
2022/04/13 12:26:46;;;;;;;0.85;0.40;;;16.30;99.90;;;;;;4944972;28;20418;-76
2022/04/13 12:29:24;;;;;;;3.55;0.60;;;16.20;99.90;;;;;;4941728;28;20541;-75
2022/04/13 12:31:54;;;;;;;0.90;0.75;;;16.20;99.90;;;;;;4940103;28;20029;-75
2022/04/13 12:34:26;;;;;;;1.77;0.90;;;16.10;99.90;;;;;;4949601;28;20074;-74
2022/04/13 12:36:57;;;;;;;1.85;0.65;;;16.10;99.90;;;;;;4945672;28;20718;-76
2022/04/13 12:39:37;;;;;;;2.78;0.65;;;16.10;99.90;;;;;;4939598;28;20114;-76
2022/04/13 12:42:07;;;;;;;1.00;0.52;;;16.10;99.90;;;;;;4945202;28;20051;-75
2022/04/13 12:44:35;;;;;;;2.13;0.65;;;16.00;99.90;;;;;;4949185;28;20031;-76
2022/04/13 12:47:06;;;;;;;1.75;0.60;;;16.00;99.90;;;;;;4947932;28;20032;-76
2022/04/13 12:49:36;;;;;;;0.65;0.30;;;16.00;99.90;;;;;;4948585;28;20037;-76
2022/04/13 12:52:04;;;;;;;2.88;0.70;;;16.00;99.90;;;;;;4946381;28;20073;-75
2022/04/13 12:54:32;;;;;;;1.48;0.93;;;16.00;99.90;;;;;;4945618;28;20031;-75
2022/04/13 12:57:01;;;;;;;0.70;0.50;;;15.90;99.90;;;;;;4949655;28;20097;-76
2022/04/13 12:59:34;;;;;;;0.40;0.40;;;15.90;99.90;;;;;;4942120;28;20031;-75
2022/04/13 13:02:02;;;;;;;1.08;0.50;;;15.90;99.90;;;;;;4946501;29;20031;-76